Time;durP1;ratioP1;P1;durP2;ratioP2;P2;SDS_P1;SDS_P2;PMS_P1;PMS_P2;Temp;Humidity;BMP_temperature;BMP_pressure;BME280_temperature;BME280_humidity;BME280_pressure;Samples;Min_cycle;Max_cycle;Signal;HPM_P1;HPM_P2
2022/10/26 00:02:38;;;;;;;;;;;11.30;99.90;;;9.29;91.84;100573.72;10340316;28;19933;-88
2022/10/26 00:07:40;;;;;;;;;;;11.30;99.90;;;9.21;92.11;100570.19;10340313;28;20457;-88
2022/10/26 00:12:46;;;;;;;;;;;11.20;99.90;;;9.16;92.39;100573.28;10335287;28;20013;-88
2022/10/26 00:17:50;;;;;;;;;;;11.10;99.90;;;9.13;92.51;100578.06;10360215;28;20017;-88
2022/10/26 00:22:53;;;;;;;;;;;11.10;99.90;;;9.07;92.71;100571.53;10319542;28;19940;-88
2022/10/26 00:27:56;;;;;;;;;;;11.00;99.90;;;9.05;93.08;100576.13;10321108;28;19934;-88
2022/10/26 00:32:59;;;;;;;;;;;11.00;99.90;;;9.02;93.31;100574.63;10336050;28;19973;-87
2022/10/26 00:38:02;;;;;;;;;;;11.00;99.90;;;8.95;93.67;100575.38;10319880;28;19934;-88
2022/10/26 00:43:35;;;;;;;;;;;11.00;99.90;;;8.94;93.81;100579.00;10324931;28;19981;-88
2022/10/26 00:48:43;;;;;;;;;;;10.90;99.90;;;8.89;93.90;100575.97;10320949;28;19934;-86
2022/10/26 00:53:46;;;;;;;;;;;10.80;99.90;;;8.82;94.35;100568.59;10341322;28;19989;-86
2022/10/26 00:58:50;;;;;;;;;;;10.80;99.90;;;8.80;94.42;100572.38;10314482;28;19956;-86
2022/10/26 01:03:52;;;;;;;;;;;10.80;99.90;;;8.80;94.66;100575.00;10315831;28;19934;-87
2022/10/26 01:08:55;;;;;;;;;;;10.80;99.90;;;8.80;94.99;100567.91;10328676;28;19934;-87
2022/10/26 01:14:00;;;;;;;;;;;10.70;99.90;;;8.79;95.12;100566.22;10325541;28;20358;-87
2022/10/26 01:19:18;;;;;;;;;;;10.70;99.90;;;8.81;95.84;100569.56;10321676;28;19933;-86
2022/10/26 01:24:49;;;;;;;;;;;10.70;99.90;;;8.78;95.87;100563.72;10352719;28;19934;-87
2022/10/26 01:30:42;;;;;;;;;;;10.80;99.90;;;8.71;95.61;100560.84;10338853;28;19944;-86
2022/10/26 01:36:00;;;;;;;;;;;10.70;99.90;;;8.62;95.64;100559.06;10341743;28;19940;-86
2022/10/26 01:41:09;;;;;;;;;;;10.60;99.90;;;8.54;95.75;100551.84;10345536;28;19933;-86
2022/10/26 01:46:13;;;;;;;;;;;10.50;99.90;;;8.45;95.84;100549.22;10338878;28;19934;-86
2022/10/26 01:51:18;;;;;;;;;;;10.50;99.90;;;8.40;96.07;100543.56;10354336;28;19933;-86
2022/10/26 01:56:24;;;;;;;;;;;10.40;99.90;;;8.38;96.28;100545.50;10334487;28;20057;-86
2022/10/26 02:01:50;;;;;;;;;;;10.30;99.90;;;8.40;96.65;100554.16;10353078;28;19961;-87
2022/10/26 02:07:04;;;;;;;;;;;10.40;99.90;;;8.36;96.36;100544.81;10360506;28;20369;-86
2022/10/26 02:12:15;;;;;;;;;;;10.40;99.90;;;8.31;96.54;100540.75;10350682;28;20033;-86
2022/10/26 02:17:35;;;;;;;;;;;10.30;99.90;;;8.26;96.45;100537.69;10340019;28;20294;-86
2022/10/26 02:22:44;;;;;;;;;;;10.30;99.90;;;8.22;96.71;100536.34;10339649;28;19984;-89
2022/10/26 02:27:51;;;;;;;;;;;10.20;99.90;;;8.17;96.70;100543.03;10346403;28;20446;-87
2022/10/26 02:32:56;;;;;;;;;;;10.20;99.90;;;8.10;96.72;100542.78;10365452;28;19934;-88
2022/10/26 02:38:01;;;;;;;;;;;10.10;99.90;;;8.05;97.22;100542.38;10397362;28;19940;-88
2022/10/26 02:43:09;;;;;;;;;;;10.00;99.90;;;8.11;97.51;100555.03;10344320;28;20384;-87
2022/10/26 02:48:13;;;;;;;;;;;10.10;99.90;;;8.15;97.64;100556.41;10325665;28;19941;-87
2022/10/26 02:53:21;;;;;;;;;;;10.10;99.90;;;8.18;98.08;100563.25;10348459;28;19940;-87
2022/10/26 02:58:32;;;;;;;;;;;10.10;99.90;;;8.19;98.33;100557.78;10358069;28;19935;-87
2022/10/26 03:03:35;;;;;;;;;;;10.10;99.90;;;8.23;98.36;100564.47;10331010;28;19934;-87
2022/10/26 03:08:38;;;;;;;;;;;10.20;99.90;;;8.21;98.36;100565.59;10347122;28;20510;-87
2022/10/26 03:13:40;;;;;;;;;;;10.20;99.90;;;8.19;98.53;100556.97;10339947;28;19934;-87
2022/10/26 03:18:43;;;;;;;;;;;10.20;99.90;;;8.19;98.80;100571.03;10331017;28;20024;-87
2022/10/26 03:23:46;;;;;;;;;;;10.10;99.90;;;8.19;98.80;100575.50;10347196;28;19934;-87
2022/10/26 03:28:49;;;;;;;;;;;10.20;99.90;;;8.13;98.81;100579.53;10326574;28;20437;-87
2022/10/26 03:33:52;;;;;;;;;;;10.10;99.90;;;8.07;98.69;100584.56;10312695;28;19934;-87
2022/10/26 03:38:55;;;;;;;;;;;10.10;99.90;;;8.03;98.80;100584.00;10349429;28;19940;-87
2022/10/26 03:43:58;;;;;;;;;;;10.00;99.90;;;7.96;98.83;100583.75;10341466;28;20410;-87
2022/10/26 03:49:00;;;;;;;;;;;10.00;99.90;;;7.95;98.89;100582.09;10314872;28;20041;-87
2022/10/26 03:54:04;;;;;;;;;;;10.00;99.90;;;7.90;98.66;100594.06;10366371;28;19984;-86
2022/10/26 03:59:07;;;;;;;;;;;9.90;99.90;;;7.81;98.61;100603.69;10334129;28;19937;-87
2022/10/26 04:04:10;;;;;;;;;;;9.80;99.90;;;7.80;98.58;100604.69;10345136;28;19980;-87
2022/10/26 04:09:13;;;;;;;;;;;9.80;99.90;;;7.73;98.96;100599.06;10345492;28;20068;-87
2022/10/26 04:14:16;;;;;;;;;;;9.80;99.90;;;7.75;99.10;100605.09;10308480;28;20297;-89
2022/10/26 04:19:18;;;;;;;;;;;9.80;99.90;;;7.75;99.08;100623.59;10338058;28;19973;-92
2022/10/26 04:24:21;;;;;;;;;;;9.80;99.90;;;7.78;99.21;100612.72;10333941;28;19965;-88
2022/10/26 04:29:24;;;;;;;;;;;9.80;99.90;;;7.81;99.44;100610.78;10343234;28;20361;-88
2022/10/26 04:34:27;;;;;;;;;;;9.80;99.90;;;7.83;99.53;100611.47;10354663;28;19973;-89
2022/10/26 04:39:30;;;;;;;;;;;9.80;99.90;;;7.79;99.39;100595.03;10335189;28;19938;-88
2022/10/26 04:44:33;;;;;;;;;;;9.80;99.90;;;7.83;99.54;100599.09;10353021;28;19934;-88
2022/10/26 04:49:35;;;;;;;;;;;9.80;99.90;;;7.74;99.59;100600.78;10334377;28;19981;-88
2022/10/26 04:54:38;;;;;;;;;;;9.80;99.90;;;7.79;99.61;100609.09;10344663;28;20024;-88
2022/10/26 04:59:41;;;;;;;;;;;9.80;99.90;;;7.72;99.51;100615.94;10345253;28;19933;-88
2022/10/26 05:04:44;;;;;;;;;;;9.80;99.90;;;7.65;99.50;100606.88;10344437;28;19933;-88
2022/10/26 05:09:47;;;;;;;;;;;9.80;99.90;;;7.63;99.72;100614.13;10340139;28;19937;-88
2022/10/26 05:14:49;;;;;;;;;;;9.70;99.90;;;7.61;99.68;100610.78;10344613;28;20033;-87
2022/10/26 05:19:54;;;;;;;;;;;9.70;99.90;;;7.54;99.72;100614.94;10356380;28;19934;-87
2022/10/26 05:24:57;;;;;;;;;;;9.60;99.90;;;7.56;99.68;100630.69;10337418;28;20009;-86
2022/10/26 05:30:00;;;;;;;;;;;9.60;99.90;;;7.49;99.64;100639.16;10339519;28;19997;-90
2022/10/26 05:35:03;;;;;;;;;;;9.50;99.90;;;7.42;99.58;100632.75;10336353;28;19942;-87
2022/10/26 05:40:07;;;;;;;;;;;9.50;99.90;;;7.40;99.53;100653.22;10361012;28;19934;-87
2022/10/26 05:45:11;;;;;;;;;;;9.40;99.90;;;7.38;99.57;100651.69;10349768;28;19933;-87
2022/10/26 05:50:14;;;;;;;;;;;9.40;99.90;;;7.39;99.82;100648.06;10366511;28;20337;-89
2022/10/26 05:55:22;;;;;;;;;;;9.40;99.90;;;7.42;99.87;100645.13;10328470;28;19934;-89
2022/10/26 06:00:27;;;;;;;;;;;9.40;99.90;;;7.46;99.94;100652.66;10328705;28;20420;-89
2022/10/26 06:05:34;;;;;;;;;;;9.50;99.90;;;7.50;99.95;100656.72;10349561;28;19984;-89
2022/10/26 06:10:38;;;;;;;;;;;9.50;99.90;;;7.57;100.00;100662.28;10312365;28;20409;-89
2022/10/26 06:15:56;;;;;;;;;;;9.50;99.90;;;7.67;100.00;100659.66;10355650;28;19942;-87
2022/10/26 06:21:53;;;;;;;;;;;9.60;99.90;;;7.82;100.00;100665.38;10331709;28;19980;-87
2022/10/26 06:27:23;;;;;;;;;;;9.80;99.90;;;7.96;100.00;100670.25;10285776;28;19940;-87
2022/10/26 06:32:26;;;;;;;;;;;9.90;99.90;;;8.10;100.00;100671.66;10366026;28;19933;-88
2022/10/26 06:37:30;;;;;;;;;;;10.10;99.90;;;8.31;100.00;100675.78;10338995;28;20366;-87
2022/10/26 06:42:33;;;;;;;;;;;10.30;99.90;;;8.55;100.00;100685.13;10308057;28;19934;-89
2022/10/26 06:47:44;;;;;;;;;;;10.50;99.90;;;8.80;100.00;100679.19;10311009;28;20431;-89
2022/10/26 06:52:57;;;;;;;;;;;10.70;99.90;;;9.04;100.00;100685.81;10346646;28;19989;-89
2022/10/26 06:58:00;;;;;;;;;;;11.00;99.90;;;9.34;100.00;100692.63;10347082;28;19934;-89
2022/10/26 07:03:03;;;;;;;;;;;11.30;99.90;;;9.59;100.00;100691.94;10347939;28;20033;-89
2022/10/26 07:08:06;;;;;;;;;;;11.50;99.90;;;10.45;100.00;100689.59;10347177;28;19941;-89
2022/10/26 07:13:10;;;;;;;;;;;11.80;99.90;;;11.84;100.00;100682.25;10348410;28;20425;-87
2022/10/26 07:18:13;;;;;;;;;;;12.50;99.90;;;13.19;100.00;100686.06;10347181;28;19934;-87
2022/10/26 07:23:15;;;;;;;;;;;13.40;99.90;;;14.36;98.92;100685.03;10353215;28;20678;-87
2022/10/26 07:28:18;;;;;;;;;;;14.20;99.90;;;15.01;93.16;100676.41;10312101;28;19933;-87
2022/10/26 07:33:21;;;;;;;;;;;14.90;99.90;;;15.00;88.44;100677.41;10347939;28;19937;-87
2022/10/26 07:38:24;;;;;;;;;;;15.40;99.90;;;14.92;85.62;100680.16;10363269;28;19941;-87
2022/10/26 07:43:27;;;;;;;;;;;15.70;99.90;;;14.84;83.26;100672.25;10346889;28;19934;-86
2022/10/26 07:48:29;;;;;;;;;;;15.80;99.90;;;14.69;82.36;100670.41;10379890;28;19934;-87
2022/10/26 07:53:32;;;;;;;;;;;15.90;99.90;;;14.42;81.29;100681.66;10346899;28;19984;-86
2022/10/26 07:58:36;;;;;;;;;;;16.00;99.90;;;14.25;80.86;100669.44;10379623;28;19989;-86
2022/10/26 08:03:39;;;;;;;;;;;16.00;99.90;;;14.27;81.64;100672.75;10344754;28;20004;-86
2022/10/26 08:08:42;;;;;;;;;;;16.10;99.90;;;14.36;81.56;100667.16;10333324;28;20028;-86
2022/10/26 08:13:53;;;;;;;;;;;16.20;99.90;;;14.44;81.23;100668.91;10312707;28;20032;-86
2022/10/26 08:18:56;;;;;;;;;;;16.10;99.90;;;14.47;81.04;100665.09;10354670;28;19937;-87
2022/10/26 08:23:59;;;;;;;;;;;16.20;99.90;;;14.56;80.52;100672.00;10321858;28;19934;-87
2022/10/26 08:29:02;;;;;;;;;;;16.40;99.90;;;14.73;80.94;100669.00;10337980;28;19941;-86
2022/10/26 08:34:05;;;;;;;;;;;16.50;99.90;;;14.92;80.17;100666.78;10377620;28;19933;-87
2022/10/26 08:39:08;;;;;;;;;;;16.70;99.90;;;14.94;79.39;100662.94;10318456;28;19934;-86
2022/10/26 08:44:35;;;;;;;;;;;16.80;99.90;;;14.97;78.67;100672.41;10304228;28;20433;-87
2022/10/26 08:50:05;;;;;;;;;;;16.90;99.90;;;15.12;79.60;100670.56;10322244;28;19941;-87
2022/10/26 08:55:17;;;;;;;;;;;17.10;99.90;;;15.19;78.02;100670.66;10325211;28;20012;-87
2022/10/26 09:00:22;;;;;;;;;;;17.20;99.90;;;15.34;78.58;100671.44;10345051;28;19934;-86
2022/10/26 09:05:34;;;;;;;;;;;17.20;99.90;;;15.48;77.24;100673.28;10359875;28;19934;-86
2022/10/26 09:10:57;;;;;;;;;;;17.30;99.90;;;15.60;76.70;100676.31;10343881;28;19938;-87
2022/10/26 09:16:19;;;;;;;;;;;17.50;99.90;;;15.74;76.65;100683.50;10377166;28;19941;-86
2022/10/26 09:21:34;;;;;;;;;;;17.60;99.90;;;15.89;76.60;100674.56;10375989;28;19981;-87
2022/10/26 09:26:54;;;;;;;;;;;17.80;99.90;;;16.12;76.59;100672.53;10336036;28;19934;-86
2022/10/26 09:31:59;;;;;;;;;;;18.00;99.90;;;16.39;76.01;100680.81;10360846;28;19981;-87
2022/10/26 09:37:18;;;;;;;;;;;18.20;99.90;;;16.56;74.60;100682.19;10341440;28;20028;-87
2022/10/26 09:42:32;;;;;;;;;;;18.50;99.90;;;16.73;74.37;100682.72;10344842;28;20428;-86
2022/10/26 09:47:37;;;;;;;;;;;18.70;99.90;;;16.87;73.87;100683.66;10344248;28;19941;-86
2022/10/26 09:52:40;;;;;;;;;;;18.80;99.90;;;16.94;73.83;100684.53;10344222;28;19941;-87
2022/10/26 09:57:49;;;;;;;;;;;18.90;99.90;;;16.91;73.51;100680.38;10342395;28;19934;-86
2022/10/26 10:02:56;;;;;;;;;;;19.00;99.90;;;17.00;74.39;100689.09;10375648;28;20539;-86
2022/10/26 10:08:11;;;;;;;;;;;19.00;99.90;;;17.12;75.27;100682.97;10340963;28;20031;-86
2022/10/26 10:13:16;;;;;;;;;;;19.10;99.90;;;17.14;74.43;100680.09;10377153;28;19981;-86
2022/10/26 10:18:22;;;;;;;;;;;19.00;99.90;;;17.16;74.88;100679.91;10347439;28;19933;-86
2022/10/26 10:23:27;;;;;;;;;;;19.00;99.90;;;17.28;75.26;100686.38;10342633;28;19934;-86
2022/10/26 10:28:32;;;;;;;;;;;19.10;99.90;;;17.27;73.85;100666.75;10362145;28;20321;-87
2022/10/26 10:33:39;;;;;;;;;;;19.10;99.90;;;17.35;74.30;100676.47;10365425;28;19934;-86
2022/10/26 10:38:43;;;;;;;;;;;19.20;99.90;;;17.45;73.47;100668.84;10349292;28;20424;-87
2022/10/26 10:44:06;;;;;;;;;;;19.30;99.90;;;17.53;72.91;100663.31;10348674;28;20305;-86
2022/10/26 10:49:26;;;;;;;;;;;19.40;99.90;;;17.61;73.02;100665.81;10351296;28;19934;-87
2022/10/26 10:54:38;;;;;;;;;;;19.40;99.90;;;17.61;73.16;100665.81;10325230;28;19934;-86
2022/10/26 10:59:48;;;;;;;;;;;19.50;99.90;;;17.69;73.96;100659.41;10334354;28;19933;-86
2022/10/26 11:04:55;;;;;;;;;;;19.60;99.90;;;17.71;73.65;100657.38;10348669;28;19934;-87
2022/10/26 11:10:01;;;;;;;;;;;19.60;99.90;;;17.76;73.47;100657.63;10348321;28;19941;-87
2022/10/26 11:15:09;;;;;;;;;;;19.60;99.90;;;17.76;73.45;100660.31;10353484;28;19935;-86
2022/10/26 11:20:16;;;;;;;;;;;19.60;99.90;;;17.75;73.02;100650.59;10355830;28;19934;-87
2022/10/26 11:25:27;;;;;;;;;;;19.60;99.90;;;17.80;72.78;100661.53;10346854;28;19993;-86
2022/10/26 11:30:32;;;;;;;;;;;19.60;99.90;;;17.82;72.02;100655.97;10326710;28;19933;-86
2022/10/26 11:35:47;;;;;;;;;;;19.70;99.90;;;17.82;71.52;100655.97;10350809;28;19980;-87
2022/10/26 11:41:01;;;;;;;;;;;19.70;99.90;;;17.76;70.96;100649.56;10343623;28;20381;-88
2022/10/26 11:46:12;;;;;;;;;;;19.70;99.90;;;17.69;71.47;100656.72;10346856;28;20401;-86
2022/10/26 11:51:34;;;;;;;;;;;19.60;99.90;;;17.64;71.59;100649.28;10326279;28;19934;-87
2022/10/26 11:56:43;;;;;;;;;;;19.50;99.90;;;17.61;71.94;100640.78;10306776;28;20024;-87
2022/10/26 12:01:51;;;;;;;;;;;19.50;99.90;;;17.54;71.44;100648.00;10335459;28;19941;-87
2022/10/26 12:06:57;;;;;;;;;;;19.50;99.90;;;17.53;71.21;100646.38;10359732;28;19934;-85
2022/10/26 12:12:08;;;;;;;;;;;19.40;99.90;;;17.49;70.58;100645.09;10320717;28;19992;-87
2022/10/26 12:17:14;;;;;;;;;;;19.40;99.90;;;17.37;69.47;100659.13;10345525;28;19934;-86
2022/10/26 12:22:18;;;;;;;;;;;19.30;99.90;;;17.34;69.40;100654.16;10358999;28;19934;-87
2022/10/26 12:27:39;;;;;;;;;;;19.20;99.90;;;17.29;68.12;100653.94;10329853;28;19934;-87
2022/10/26 12:32:42;;;;;;;;;;;19.20;99.50;;;17.31;67.78;100664.47;10361985;28;19940;-87
2022/10/26 12:37:45;;;;;;;;;;;19.20;99.40;;;17.32;67.87;100652.69;10354929;28;19979;-87
2022/10/26 12:42:48;;;;;;;;;;;19.20;99.00;;;17.40;68.02;100655.22;10315307;28;19934;-87
2022/10/26 12:47:52;;;;;;;;;;;19.20;99.20;;;17.50;67.84;100650.25;10319263;28;32430;-87
2022/10/26 12:53:09;;;;;;;;;;;19.30;98.90;;;17.52;67.44;100650.09;10351299;28;19934;-87
2022/10/26 12:58:22;;;;;;;;;;;19.40;98.90;;;17.58;67.03;100651.97;10344781;28;20335;-87
2022/10/26 13:03:47;;;;;;;;;;;19.40;98.50;;;17.61;65.93;100652.38;10361180;28;20373;-86
2022/10/26 13:08:52;;;;;;;;;;;19.50;98.20;;;17.69;66.16;100650.53;10359201;28;19934;-87
2022/10/26 13:14:07;;;;;;;;;;;19.50;98.00;;;17.72;65.01;100650.97;10329270;28;20474;-86
2022/10/26 13:19:29;;;;;;;;;;;19.60;98.00;;;17.72;64.25;100650.16;10332130;28;19966;-86
2022/10/26 13:24:33;;;;;;;;;;;19.60;96.40;;;17.68;64.59;100649.69;10321886;28;20081;-86
2022/10/26 13:30:14;;;;;;;;;;;19.60;97.10;;;17.67;65.34;100648.88;10317280;28;19963;-87
2022/10/26 13:35:18;;;;;;;;;;;19.50;97.40;;;17.74;66.48;100654.28;10307348;28;19941;-87
2022/10/26 13:40:27;;;;;;;;;;;19.50;97.70;;;17.84;66.50;100654.72;10320037;28;20033;-87
2022/10/26 13:45:38;;;;;;;;;;;19.60;97.70;;;17.92;66.74;100657.22;10325509;28;19933;-87
2022/10/26 13:50:50;;;;;;;;;;;19.80;97.80;;;17.96;66.77;100654.13;10344637;28;19941;-87
2022/10/26 13:56:01;;;;;;;;;;;19.80;97.80;;;17.90;67.19;100656.59;10359182;28;19934;-88
2022/10/26 14:01:09;;;;;;;;;;;19.80;97.90;;;17.79;66.79;100657.19;10349294;28;20463;-87
2022/10/26 14:06:37;;;;;;;;;;;19.70;97.70;;;17.65;66.83;100650.13;10349446;28;19981;-87
2022/10/26 14:11:51;;;;;;;;;;;19.60;97.60;;;17.50;67.21;100650.25;10384089;28;19941;-87
2022/10/26 14:16:55;;;;;;;;;;;19.40;97.80;;;17.36;67.56;100654.78;10363171;28;19934;-87
2022/10/26 14:21:58;;;;;;;;;;;19.30;97.80;;;17.27;68.22;100663.19;10321504;28;19934;-87
2022/10/26 14:27:01;;;;;;;;;;;19.10;98.10;;;17.18;69.00;100659.03;10321413;28;20378;-86
2022/10/26 14:32:32;;;;;;;;;;;19.10;98.40;;;17.10;69.03;100663.56;10336914;28;19934;-85
2022/10/26 14:37:48;;;;;;;;;;;19.00;98.50;;;17.05;70.24;100666.00;10335306;28;20278;-86
2022/10/26 14:42:54;;;;;;;;;;;18.90;98.80;;;17.00;70.79;100654.19;10348948;28;19933;-85
2022/10/26 14:47:58;;;;;;;;;;;18.90;99.00;;;16.96;70.56;100663.66;10312921;28;20376;-85
2022/10/26 14:53:13;;;;;;;;;;;18.80;99.00;;;16.90;71.15;100667.97;10334569;28;20442;-84
2022/10/26 14:58:31;;;;;;;;;;;18.80;99.10;;;16.84;70.95;100668.75;10330091;28;19961;-85
2022/10/26 15:03:37;;;;;;;;;;;18.70;99.20;;;16.77;71.50;100670.59;10333934;28;20333;-85
2022/10/26 15:08:43;;;;;;;;;;;18.60;99.30;;;16.65;71.86;100674.81;10351265;28;19934;-84
2022/10/26 15:13:59;;;;;;;;;;;18.60;99.50;;;16.53;72.19;100672.66;10328871;28;20017;-84
2022/10/26 15:19:14;;;;;;;;;;;18.40;99.60;;;16.42;72.94;100685.78;10350648;28;19940;-84
2022/10/26 15:24:34;;;;;;;;;;;18.30;99.90;;;16.27;73.53;100688.56;10334919;28;19937;-86
2022/10/26 15:29:45;;;;;;;;;;;18.10;99.90;;;16.12;74.35;100691.28;10329951;28;20520;-85
2022/10/26 15:35:06;;;;;;;;;;;18.00;99.90;;;16.01;75.05;100702.50;10335385;28;19941;-86
2022/10/26 15:40:09;;;;;;;;;;;17.90;99.90;;;15.88;75.57;100695.19;10365887;28;19934;-87
2022/10/26 15:45:26;;;;;;;;;;;17.80;99.90;;;15.76;75.78;100708.25;10311949;28;19934;-87
2022/10/26 15:50:29;;;;;;;;;;;17.60;99.90;;;15.65;76.17;100716.78;10360730;28;19934;-85
2022/10/26 15:55:32;;;;;;;;;;;17.50;99.90;;;15.58;76.86;100710.47;10362721;28;19992;-85
2022/10/26 16:00:35;;;;;;;;;;;17.50;99.90;;;15.51;76.98;100713.06;10357204;28;19934;-89
2022/10/26 16:05:39;;;;;;;;;;;17.40;99.90;;;15.47;77.26;100716.31;10346895;28;19941;-83
2022/10/26 16:10:42;;;;;;;;;;;17.30;99.90;;;15.41;77.59;100715.25;10360036;28;20381;-88
2022/10/26 16:15:45;;;;;;;;;;;17.30;99.90;;;15.35;77.99;100725.84;10346545;28;19937;-88
2022/10/26 16:20:48;;;;;;;;;;;17.20;99.90;;;15.27;78.36;100724.91;10345328;28;19940;-84
2022/10/26 16:25:51;;;;;;;;;;;17.10;99.90;;;15.18;78.97;100735.94;10336418;28;20301;-84
2022/10/26 16:31:02;;;;;;;;;;;17.10;99.90;;;15.11;79.50;100745.69;10375935;28;20306;-87
2022/10/26 16:36:06;;;;;;;;;;;17.00;99.90;;;15.06;79.79;100751.63;10346584;28;19934;-84
2022/10/26 16:41:13;;;;;;;;;;;16.90;99.90;;;15.04;80.09;100744.75;10345261;28;19937;-86
2022/10/26 16:46:18;;;;;;;;;;;16.90;99.90;;;15.02;80.64;100747.63;10358073;28;19981;-85
2022/10/26 16:51:23;;;;;;;;;;;16.90;99.90;;;14.98;80.17;100765.06;10353119;28;20465;-86
2022/10/26 16:56:27;;;;;;;;;;;16.80;99.90;;;14.91;80.57;100767.63;10355989;28;19934;-86
2022/10/26 17:01:31;;;;;;;;;;;16.80;99.90;;;14.84;80.78;100760.53;10350603;28;19938;-86
2022/10/26 17:06:34;;;;;;;;;;;16.70;99.90;;;14.73;81.17;100759.94;10351568;28;19941;-86
2022/10/26 17:11:37;;;;;;;;;;;16.60;99.90;;;14.64;81.74;100771.75;10356134;28;20402;-86
2022/10/26 17:16:40;;;;;;;;;;;16.50;99.90;;;14.60;82.01;100775.78;10343566;28;19937;-86
2022/10/26 17:21:43;;;;;;;;;;;16.50;99.90;;;14.59;82.57;100778.66;10319106;28;19989;-86
2022/10/26 17:26:46;;;;;;;;;;;16.50;99.90;;;14.54;82.77;100778.34;10304590;28;19938;-86
2022/10/26 17:31:49;;;;;;;;;;;16.40;99.90;;;14.52;82.89;100778.53;10347283;28;19941;-87
2022/10/26 17:36:52;;;;;;;;;;;16.40;99.90;;;14.48;83.32;100779.91;10364874;28;19941;-86
2022/10/26 17:41:55;;;;;;;;;;;16.30;99.90;;;14.42;83.40;100784.09;10356713;28;20456;-86
2022/10/26 17:46:58;;;;;;;;;;;16.30;99.90;;;14.34;83.68;100792.19;10372310;28;19972;-86
2022/10/26 17:52:01;;;;;;;;;;;16.20;99.90;;;14.26;84.12;100796.72;10355987;28;19940;-86
2022/10/26 17:57:04;;;;;;;;;;;16.10;99.90;;;14.19;84.46;100815.31;10373349;28;19940;-86
2022/10/26 18:02:08;;;;;;;;;;;16.00;99.90;;;14.15;84.78;100814.00;10372123;28;19980;-87
2022/10/26 18:07:12;;;;;;;;;;;16.00;99.90;;;14.09;85.08;100814.69;10356971;28;19934;-87
2022/10/26 18:12:14;;;;;;;;;;;15.90;99.90;;;14.01;85.28;100817.44;10356230;28;20400;-86
2022/10/26 18:17:18;;;;;;;;;;;15.90;99.90;;;13.91;85.55;100812.28;10386109;28;19970;-87
2022/10/26 18:22:20;;;;;;;;;;;15.80;99.90;;;13.79;85.80;100816.34;10356783;28;20380;-87
2022/10/26 18:27:23;;;;;;;;;;;15.70;99.90;;;13.62;85.63;100835.13;10354905;28;20417;-87
2022/10/26 18:32:26;;;;;;;;;;;15.50;99.90;;;13.45;85.84;100830.84;10370450;28;19934;-87
2022/10/26 18:37:28;;;;;;;;;;;15.40;99.90;;;13.29;86.37;100833.53;10325870;28;19941;-86
2022/10/26 18:42:31;;;;;;;;;;;15.20;99.90;;;13.12;86.48;100841.53;10351150;28;20421;-87
2022/10/26 18:47:34;;;;;;;;;;;15.10;99.90;;;12.97;87.01;100837.06;10355104;28;19969;-86
2022/10/26 18:52:37;;;;;;;;;;;14.90;99.90;;;12.85;87.04;100844.56;10320891;28;19934;-86
2022/10/26 18:57:40;;;;;;;;;;;14.70;99.90;;;12.65;87.47;100840.53;10332395;28;19934;-85
2022/10/26 19:02:43;;;;;;;;;;;14.50;99.90;;;12.50;88.08;100851.88;10340100;28;19940;-85
2022/10/26 19:07:48;;;;;;;;;;;14.40;99.90;;;12.43;88.89;100863.38;10363014;28;19969;-85
2022/10/26 19:12:51;;;;;;;;;;;14.30;99.90;;;12.39;89.48;100875.34;10326200;28;19941;-85
2022/10/26 19:17:56;;;;;;;;;;;14.20;99.90;;;12.41;90.06;100884.00;10336207;28;19956;-85
2022/10/26 19:22:59;;;;;;;;;;;14.20;99.90;;;12.39;91.06;100894.81;10344303;28;19934;-86
2022/10/26 19:28:02;;;;;;;;;;;14.20;99.90;;;12.38;91.43;100887.84;10332611;28;19934;-86
2022/10/26 19:33:05;;;;;;;;;;;14.20;99.90;;;12.38;91.83;100901.16;10334982;28;19941;-86
2022/10/26 19:38:08;;;;;;;;;;;14.20;99.90;;;12.34;92.07;100910.47;10340368;28;20483;-86
2022/10/26 19:43:11;;;;;;;;;;;14.20;99.90;;;12.31;92.30;100924.97;10330129;28;19941;-86
2022/10/26 19:48:14;;;;;;;;;;;14.20;99.90;;;12.26;92.18;100927.28;10336458;28;20397;-86
2022/10/26 19:53:17;;;;;;;;;;;14.10;99.90;;;12.23;92.51;100934.75;10347551;28;19938;-86
2022/10/26 19:58:20;;;;;;;;;;;14.10;99.90;;;12.18;93.00;100935.25;10340818;28;19980;-85
2022/10/26 20:03:23;;;;;;;;;;;14.00;99.90;;;12.17;93.13;100944.22;10323610;28;19972;-86
2022/10/26 20:08:26;;;;;;;;;;;14.00;99.90;;;12.14;93.45;100947.22;10334530;28;20389;-85
2022/10/26 20:13:30;;;;;;;;;;;14.00;99.90;;;12.17;93.76;100951.38;10317327;28;19965;-86
2022/10/26 20:18:33;;;;;;;;;;;14.00;99.90;;;12.19;94.14;100955.56;10365336;28;19934;-85
2022/10/26 20:23:36;;;;;;;;;;;14.10;99.90;;;12.17;94.28;100964.69;10334385;28;19977;-84
2022/10/26 20:28:44;;;;;;;;;;;14.00;99.90;;;12.18;94.97;100961.88;10342513;28;19938;-84
2022/10/26 20:33:51;;;;;;;;;;;14.00;99.90;;;12.24;95.42;100971.06;10327180;28;20024;-84
2022/10/26 20:38:54;;;;;;;;;;;14.00;99.90;;;12.24;95.83;100965.75;10340329;28;19934;-84
2022/10/26 20:43:57;;;;;;;;;;;14.00;99.90;;;12.24;96.23;100961.25;10341355;28;19977;-85
2022/10/26 20:49:00;;;;;;;;;;;14.00;99.90;;;12.30;96.41;100967.78;10343589;28;20434;-85
2022/10/26 20:54:32;;;;;;;;;;;14.10;99.90;;;12.32;96.48;100957.78;10327504;28;20456;-84
2022/10/26 21:00:02;;;;;;;;;;;14.10;99.90;;;12.33;96.87;100954.09;10320034;28;20466;-84
2022/10/26 21:05:05;;;;;;;;;;;14.10;99.90;;;12.36;97.30;100967.13;10327395;28;19943;-84
2022/10/26 21:10:08;;;;;;;;;;;14.10;99.90;;;12.44;97.69;100961.81;10343054;28;20025;-84
2022/10/26 21:15:11;;;;;;;;;;;14.20;99.90;;;12.52;97.93;100964.50;10353831;28;19940;-84
2022/10/26 21:20:14;;;;;;;;;;;14.30;99.90;;;12.53;97.78;100971.53;10321220;28;19942;-84
2022/10/26 21:25:17;;;;;;;;;;;14.30;99.90;;;12.49;97.36;100980.84;10360575;28;20052;-85
2022/10/26 21:30:20;;;;;;;;;;;14.30;99.90;;;12.46;97.59;100972.31;10342392;28;19934;-84
2022/10/26 21:35:23;;;;;;;;;;;14.30;99.90;;;12.42;97.69;100966.50;10336445;28;20305;-85
2022/10/26 21:40:26;;;;;;;;;;;14.20;99.90;;;12.44;98.19;100977.81;10333241;28;19981;-84
2022/10/26 21:45:28;;;;;;;;;;;14.20;99.90;;;12.50;98.44;100977.16;10353124;28;20460;-84
2022/10/26 21:50:31;;;;;;;;;;;14.30;99.90;;;12.54;98.53;100973.19;10376944;28;19934;-84
2022/10/26 21:55:34;;;;;;;;;;;14.30;99.90;;;12.56;98.46;100970.34;10324044;28;19965;-85
2022/10/26 22:00:36;;;;;;;;;;;14.30;99.90;;;12.58;98.29;100984.34;10353466;28;19980;-85
2022/10/26 22:05:39;;;;;;;;;;;14.40;99.90;;;12.53;97.98;100986.66;10340551;28;19940;-85
2022/10/26 22:10:47;;;;;;;;;;;14.40;99.90;;;12.48;97.81;101000.50;10329282;28;20033;-84
2022/10/26 22:16:23;;;;;;;;;;;14.30;99.90;;;12.35;97.40;101005.41;10375361;28;19977;-85
2022/10/26 22:21:30;;;;;;;;;;;14.20;99.90;;;12.27;97.43;101006.22;10364086;28;19933;-85
2022/10/26 22:26:35;;;;;;;;;;;14.10;99.90;;;12.17;97.38;101007.31;10345193;28;19937;-85
2022/10/26 22:31:39;;;;;;;;;;;14.00;99.90;;;12.07;96.91;101009.28;10368321;28;19934;-85
2022/10/26 22:36:42;;;;;;;;;;;13.90;99.90;;;11.92;96.75;101007.19;10347276;28;19971;-84
2022/10/26 22:41:47;;;;;;;;;;;13.80;99.90;;;11.79;96.57;101015.56;10333598;28;19934;-85
2022/10/26 22:46:50;;;;;;;;;;;13.70;99.90;;;11.65;96.55;101005.47;10347028;28;19933;-85
2022/10/26 22:51:53;;;;;;;;;;;13.50;99.90;;;11.50;96.12;101017.66;10332537;28;20393;-86
2022/10/26 22:56:56;;;;;;;;;;;13.40;99.90;;;11.32;96.00;101017.66;10343909;28;19933;-85
2022/10/26 23:01:59;;;;;;;;;;;13.20;99.90;;;11.21;96.04;101020.56;10346362;28;19941;-85
2022/10/26 23:07:02;;;;;;;;;;;13.20;99.90;;;11.10;96.11;101029.63;10347453;28;20040;-85